Cuney, Texas
Current Conditions -  °F | °C
As of 3:15 PM on Tuesday 21 Oct 2014 (Local Time) from KJSO Reporting Station
Clear Clear  
Wind Chill: 79°   Ceiling: Unl
Heat Index: 80°   Visibility: 10mi
Dew Point: 59°   Wind: 5mph
Humidity: 50%   Direction: 90°E
Pressure: 30.06"   Gusts: NA
Location:  32.03°N, 95.42°W
Report Text: KJSO 212015Z AUTO 09004KT 10SM CLR 26/15 A3006 RMK AO2 T02630150
Loading
Personal Weather Stations






























Interactive Weather Map
Tropical Storm Tracking
New forecast layout! Learn more

10-Day Weather Forecast

Advertisements
Track Severe Weather on mobile